Terminal Aerodrome Forecast
Issued by NWS

Home | Current Version | Previous Version | Text Only | Print | Product List | Glossary On
Versions: 1 2 3 4 5 6 7 8 9 10 11 12 13 14 15 16 17 18 19
000
FTUS46 KLOX 292340
TAFOXR
TAF
KOXR 292340Z 3000/3024 28014KT P6SM BKN250
     FM300200 28009KT P6SM BKN250
     FM300500 VRB03KT P6SM BKN250
     FM301700 25006KT P6SM SCT250
     FM302000 26011KT P6SM SCT250=

USA.gov is the U.S. government's official web portal to all federal, state and local government web resources and services.